Time,TemperatureF,DewpointF,PressureIn,WindDirection,WindDirectionDegrees,WindSpeedMPH,WindSpeedGustMPH,Humidity,HourlyPrecipIn,Conditions,Clouds,dailyrainin,SoftwareType,DateUTC
2013-11-29 00:02:00,55.8,3.9,29.96,ENE,64,0.0,0.0,12,0.00,,,0.00,VWS V14.01,2013-11-29 08:02:00,
2013-11-29 00:07:00,55.6,3.8,29.99,ENE,64,0.0,0.0,12,0.00,,,0.00,VWS V14.01,2013-11-29 08:07:00,
2013-11-29 00:12:00,55.2,5.2,29.99,ENE,64,0.0,0.0,13,0.00,,,0.00,VWS V14.01,2013-11-29 08:12:00,
2013-11-29 00:17:00,55.0,5.1,29.99,ENE,65,0.0,0.0,13,0.00,,,0.00,VWS V14.01,2013-11-29 08:17:00,
2013-11-29 00:22:00,54.9,5.0,29.99,ENE,64,0.0,0.0,13,0.00,,,0.00,VWS V14.01,2013-11-29 08:22:00,
2013-11-29 00:27:00,54.9,5.0,29.99,ENE,64,0.0,0.0,13,0.00,,,0.00,VWS V14.01,2013-11-29 08:27:00,
2013-11-29 00:32:00,54.7,4.8,29.99,ENE,65,0.0,0.0,13,0.00,,,0.00,VWS V14.01,2013-11-29 08:32:00,
2013-11-29 00:37:00,54.5,4.7,29.99,ENE,65,0.0,0.0,13,0.00,,,0.00,VWS V14.01,2013-11-29 08:37:00,
2013-11-29 00:42:00,54.0,4.2,29.99,ENE,64,0.0,0.0,13,0.00,,,0.00,VWS V14.01,2013-11-29 08:42:00,
2013-11-29 00:47:00,53.4,3.8,29.99,ENE,64,0.0,0.0,13,0.00,,,0.00,VWS V14.01,2013-11-29 08:47:00,
2013-11-29 00:52:00,53.1,3.5,29.99,ENE,65,0.0,0.0,13,0.00,,,0.00,VWS V14.01,2013-11-29 08:52:00,
2013-11-29 00:57:00,52.5,3.1,29.99,ENE,64,0.0,0.0,13,0.00,,,0.00,VWS V14.01,2013-11-29 08:57:00,
2013-11-29 01:02:00,52.2,2.8,29.99,ENE,64,0.0,0.0,13,0.00,,,0.00,VWS V14.01,2013-11-29 09:02:00,
2013-11-29 01:07:00,52.0,2.7,29.99,ENE,64,0.0,0.0,13,0.00,,,0.00,VWS V14.01,2013-11-29 09:07:00,
2013-11-29 01:12:00,51.8,2.5,29.99,ENE,65,0.0,0.0,13,0.00,,,0.00,VWS V14.01,2013-11-29 09:12:00,
2013-11-29 01:17:00,51.8,2.5,29.99,ENE,64,0.0,0.0,13,0.00,,,0.00,VWS V14.01,2013-11-29 09:17:00,
2013-11-29 01:22:00,51.8,2.5,29.99,ENE,65,0.0,0.0,13,0.00,,,0.00,VWS V14.01,2013-11-29 09:22:00,
2013-11-29 01:27:00,52.2,2.8,29.99,ENE,64,0.0,0.0,13,0.00,,,0.00,VWS V14.01,2013-11-29 09:27:00,
2013-11-29 01:32:00,52.5,3.1,29.99,ENE,64,0.0,0.0,13,0.00,,,0.00,VWS V14.01,2013-11-29 09:32:00,
2013-11-29 01:37:00,52.7,3.2,29.99,ENE,64,0.0,0.0,13,0.00,,,0.00,VWS V14.01,2013-11-29 09:37:00,
2013-11-29 01:42:00,53.1,3.5,29.99,ENE,64,0.0,0.0,13,0.00,,,0.00,VWS V14.01,2013-11-29 09:42:00,
2013-11-29 01:47:00,53.2,3.7,29.99,ENE,64,0.0,0.0,13,0.00,,,0.00,VWS V14.01,2013-11-29 09:47:00,
2013-11-29 01:52:00,53.2,3.7,29.99,ENE,65,0.0,0.0,13,0.00,,,0.00,VWS V14.01,2013-11-29 09:52:00,
2013-11-29 01:57:00,53.1,3.5,29.99,ENE,64,0.0,0.0,13,0.00,,,0.00,VWS V14.01,2013-11-29 09:57:00,
2013-11-29 02:02:00,53.1,3.5,29.99,ENE,64,0.0,0.0,13,0.00,,,0.00,VWS V14.01,2013-11-29 10:02:00,
2013-11-29 02:07:00,52.9,3.4,30.02,ENE,65,0.0,0.0,13,0.00,,,0.00,VWS V14.01,2013-11-29 10:07:00,
2013-11-29 02:13:00,52.3,3.0,30.02,ENE,64,0.0,0.0,13,0.00,,,0.00,VWS V14.01,2013-11-29 10:13:00,
2013-11-29 02:18:00,52.2,2.8,30.02,ENE,65,0.0,0.0,13,0.00,,,0.00,VWS V14.01,2013-11-29 10:18:00,
2013-11-29 02:23:00,52.0,2.7,30.02,ENE,65,0.0,0.0,13,0.00,,,0.00,VWS V14.01,2013-11-29 10:23:00,
2013-11-29 02:28:00,52.0,2.7,30.02,ENE,64,0.0,0.0,13,0.00,,,0.00,VWS V14.01,2013-11-29 10:28:00,
2013-11-29 02:33:00,52.2,2.8,30.02,ENE,64,0.0,0.0,13,0.00,,,0.00,VWS V14.01,2013-11-29 10:33:00,
2013-11-29 02:38:00,52.0,2.7,30.02,ENE,65,0.0,0.0,13,0.00,,,0.00,VWS V14.01,2013-11-29 10:38:00,
2013-11-29 02:43:00,52.2,2.8,30.02,ENE,65,0.0,0.0,13,0.00,,,0.00,VWS V14.01,2013-11-29 10:43:00,
2013-11-29 02:48:00,52.2,2.8,30.02,ENE,65,0.0,0.0,13,0.00,,,0.00,VWS V14.01,2013-11-29 10:48:00,
2013-11-29 02:53:00,51.8,2.5,30.02,ENE,64,0.0,0.0,13,0.00,,,0.00,VWS V14.01,2013-11-29 10:53:00,
2013-11-29 02:58:00,51.6,4.0,30.02,ENE,64,0.0,0.0,14,0.00,,,0.00,VWS V14.01,2013-11-29 10:58:00,
2013-11-29 03:03:00,51.8,2.5,30.02,ENE,65,0.0,0.0,13,0.00,,,0.00,VWS V14.01,2013-11-29 11:03:00,
2013-11-29 03:08:00,52.0,2.7,30.02,SE,140,0.0,3.1,13,0.00,,,0.00,VWS V14.01,2013-11-29 11:08:00,
2013-11-29 03:13:00,52.2,2.8,30.02,SE,131,0.0,2.2,13,0.00,,,0.00,VWS V14.01,2013-11-29 11:13:00,
2013-11-29 03:18:00,52.3,3.0,30.02,SE,128,0.0,2.2,13,0.00,,,0.00,VWS V14.01,2013-11-29 11:18:00,
2013-11-29 03:23:00,52.7,3.2,30.02,SE,125,0.0,0.0,13,0.00,,,0.00,VWS V14.01,2013-11-29 11:23:00,
2013-11-29 03:28:00,52.7,3.2,30.02,SE,125,0.0,0.0,13,0.00,,,0.00,VWS V14.01,2013-11-29 11:28:00,
2013-11-29 03:33:00,52.7,3.2,30.02,SE,125,0.0,0.0,13,0.00,,,0.00,VWS V14.01,2013-11-29 11:33:00,
2013-11-29 03:38:00,52.3,3.0,30.02,SE,125,0.0,0.0,13,0.00,,,0.00,VWS V14.01,2013-11-29 11:38:00,
2013-11-29 03:43:00,52.3,3.0,30.02,SE,125,0.0,0.0,13,0.00,,,0.00,VWS V14.01,2013-11-29 11:43:00,
2013-11-29 03:48:00,52.0,2.7,30.02,SE,125,0.0,0.0,13,0.00,,,0.00,VWS V14.01,2013-11-29 11:48:00,
2013-11-29 03:53:00,52.0,2.7,30.02,SE,125,0.0,0.0,13,0.00,,,0.00,VWS V14.01,2013-11-29 11:53:00,
2013-11-29 03:58:00,52.0,2.7,30.02,SE,125,0.0,0.0,13,0.00,,,0.00,VWS V14.01,2013-11-29 11:58:00,
2013-11-29 04:03:00,51.8,2.5,30.02,SE,125,0.0,0.0,13,0.00,,,0.00,VWS V14.01,2013-11-29 12:03:00,
2013-11-29 04:08:00,51.6,4.0,30.02,SE,125,0.0,0.0,14,0.00,,,0.00,VWS V14.01,2013-11-29 12:08:00,
2013-11-29 04:13:00,51.4,3.8,30.02,SE,125,2.7,2.7,14,0.00,,,0.00,VWS V14.01,2013-11-29 12:13:00,
2013-11-29 04:18:00,51.4,3.8,30.02,SE,125,2.2,2.2,14,0.00,,,0.00,VWS V14.01,2013-11-29 12:18:00,
2013-11-29 04:23:00,51.6,6.9,30.02,SE,125,2.7,3.1,16,0.00,,,0.00,VWS V14.01,2013-11-29 12:23:00,
2013-11-29 04:28:00,51.4,6.8,30.02,SE,125,2.2,2.2,16,0.00,,,0.00,VWS V14.01,2013-11-29 12:28:00,
2013-11-29 04:33:00,51.3,6.6,30.02,SE,125,0.0,0.0,16,0.00,,,0.00,VWS V14.01,2013-11-29 12:33:00,
2013-11-29 04:38:00,51.1,6.5,30.02,SE,125,3.6,3.6,16,0.00,,,0.00,VWS V14.01,2013-11-29 12:38:00,
2013-11-29 04:43:00,51.3,6.6,30.02,SE,125,2.7,2.7,16,0.00,,,0.00,VWS V14.01,2013-11-29 12:43:00,
2013-11-29 04:48:00,51.8,7.1,30.02,SE,125,2.2,2.2,16,0.00,,,0.00,VWS V14.01,2013-11-29 12:48:00,
2013-11-29 04:53:00,52.0,7.2,30.02,SE,125,0.0,2.2,16,0.00,,,0.00,VWS V14.01,2013-11-29 12:53:00,
2013-11-29 04:58:00,51.8,7.1,30.02,SE,125,0.0,0.0,16,0.00,,,0.00,VWS V14.01,2013-11-29 12:58:00,
2013-11-29 05:03:00,51.4,3.8,30.02,SE,125,0.0,0.0,14,0.00,,,0.00,VWS V14.01,2013-11-29 13:03:00,
2013-11-29 05:08:00,51.4,6.8,30.02,SE,125,0.0,0.0,16,0.00,,,0.00,VWS V14.01,2013-11-29 13:08:00,
2013-11-29 05:13:00,51.6,6.9,30.02,SE,125,0.0,0.0,16,0.00,,,0.00,VWS V14.01,2013-11-29 13:13:00,
2013-11-29 05:18:00,51.8,7.1,30.02,SE,125,0.0,0.0,16,0.00,,,0.00,VWS V14.01,2013-11-29 13:18:00,
2013-11-29 05:23:00,52.0,7.2,30.05,SE,125,0.0,0.0,16,0.00,,,0.00,VWS V14.01,2013-11-29 13:23:00,
2013-11-29 05:28:00,52.2,2.8,30.05,SE,125,0.0,0.0,13,0.00,,,0.00,VWS V14.01,2013-11-29 13:28:00,
2013-11-29 05:33:00,52.2,2.8,30.05,SE,125,0.0,0.0,13,0.00,,,0.00,VWS V14.01,2013-11-29 13:33:00,
2013-11-29 05:38:00,52.5,3.1,30.02,SE,125,2.7,2.7,13,0.00,,,0.00,VWS V14.01,2013-11-29 13:38:00,
2013-11-29 05:43:00,52.5,3.1,30.02,SE,125,2.7,2.7,13,0.00,,,0.00,VWS V14.01,2013-11-29 13:43:00,
2013-11-29 05:48:00,52.7,3.2,30.02,SE,125,2.7,2.7,13,0.00,,,0.00,VWS V14.01,2013-11-29 13:48:00,
2013-11-29 05:53:00,52.9,3.4,30.05,SE,125,2.7,2.7,13,0.00,,,0.00,VWS V14.01,2013-11-29 13:53:00,
2013-11-29 05:58:00,53.1,3.5,30.05,SE,125,2.7,3.1,13,0.00,,,0.00,VWS V14.01,2013-11-29 13:58:00,
2013-11-29 06:03:00,53.6,4.0,30.05,SE,125,2.7,3.1,13,0.00,,,0.00,VWS V14.01,2013-11-29 14:03:00,
2013-11-29 06:08:00,53.8,4.1,30.05,SE,125,2.2,2.7,13,0.00,,,0.00,VWS V14.01,2013-11-29 14:08:00,
2013-11-29 06:13:00,53.4,3.8,30.05,SE,125,0.0,0.0,13,0.00,,,0.00,VWS V14.01,2013-11-29 14:13:00,
2013-11-29 06:18:00,53.1,3.5,30.05,SE,125,0.0,0.0,13,0.00,,,0.00,VWS V14.01,2013-11-29 14:18:00,
2013-11-29 06:23:00,52.3,3.0,30.05,SE,125,0.0,0.0,13,0.00,,,0.00,VWS V14.01,2013-11-29 14:23:00,
2013-11-29 06:28:00,51.8,2.5,30.05,SE,125,0.0,2.7,13,0.00,,,0.00,VWS V14.01,2013-11-29 14:28:00,
2013-11-29 06:33:00,51.8,2.5,30.05,SE,125,2.2,2.7,13,0.00,,,0.00,VWS V14.01,2013-11-29 14:33:00,
2013-11-29 06:38:00,52.0,2.7,30.05,SE,125,0.0,0.0,13,0.00,,,0.00,VWS V14.01,2013-11-29 14:38:00,
2013-11-29 06:43:00,52.2,2.8,30.05,SE,125,0.0,0.0,13,0.00,,,0.00,VWS V14.01,2013-11-29 14:43:00,
2013-11-29 06:48:00,52.3,3.0,30.05,SE,125,0.0,0.0,13,0.00,,,0.00,VWS V14.01,2013-11-29 14:48:00,
2013-11-29 06:53:00,52.7,3.2,30.05,SE,125,0.0,0.0,13,0.00,,,0.00,VWS V14.01,2013-11-29 14:53:00,
2013-11-29 06:58:00,53.1,3.5,30.05,SE,125,0.0,0.0,13,0.00,,,0.00,VWS V14.01,2013-11-29 14:58:00,
2013-11-29 07:03:00,53.1,3.5,30.05,SE,125,0.0,0.0,13,0.00,,,0.00,VWS V14.01,2013-11-29 15:03:00,
2013-11-29 07:08:00,52.9,3.4,30.05,SE,125,0.0,0.0,13,0.00,,,0.00,VWS V14.01,2013-11-29 15:08:00,
2013-11-29 07:13:00,52.7,3.2,30.05,SE,125,0.0,0.0,13,0.00,,,0.00,VWS V14.01,2013-11-29 15:13:00,
2013-11-29 07:18:00,52.5,3.1,30.05,SE,125,0.0,0.0,13,0.00,,,0.00,VWS V14.01,2013-11-29 15:18:00,
2013-11-29 07:23:00,52.3,3.0,30.05,SE,125,0.0,0.0,13,0.00,,,0.00,VWS V14.01,2013-11-29 15:23:00,
2013-11-29 07:28:00,52.3,3.0,30.05,SE,125,0.0,0.0,13,0.00,,,0.00,VWS V14.01,2013-11-29 15:28:00,
2013-11-29 07:33:00,51.8,2.5,30.05,SE,125,0.0,0.0,13,0.00,,,0.00,VWS V14.01,2013-11-29 15:33:00,
2013-11-29 07:38:00,51.4,3.8,30.05,SE,125,0.0,0.0,14,0.00,,,0.00,VWS V14.01,2013-11-29 15:38:00,
2013-11-29 07:43:00,51.4,3.8,30.05,ENE,58,2.2,2.2,14,0.00,,,0.00,VWS V14.01,2013-11-29 15:43:00,
2013-11-29 07:48:00,52.3,3.0,30.05,NE,52,0.0,3.1,13,0.00,,,0.00,VWS V14.01,2013-11-29 15:48:00,
2013-11-29 07:53:00,53.4,3.8,30.05,ENE,74,0.0,2.7,13,0.00,,,0.00,VWS V14.01,2013-11-29 15:53:00,
2013-11-29 07:58:00,54.3,4.5,30.05,NE,56,0.0,2.2,13,0.00,,,0.00,VWS V14.01,2013-11-29 15:58:00,
2013-11-29 08:03:00,55.0,5.1,30.05,NNE,29,2.7,2.7,13,0.00,,,0.00,VWS V14.01,2013-11-29 16:03:00,
2013-11-29 08:08:00,55.8,3.9,30.05,NNE,19,0.0,4.0,12,0.00,,,0.00,VWS V14.01,2013-11-29 16:08:00,
2013-11-29 08:13:00,56.3,4.4,30.05,ENE,70,3.1,4.0,12,0.00,,,0.00,VWS V14.01,2013-11-29 16:13:00,
2013-11-29 08:18:00,56.8,4.8,30.05,ENE,61,3.6,3.6,12,0.00,,,0.00,VWS V14.01,2013-11-29 16:18:00,
2013-11-29 08:23:00,57.6,5.3,30.08,ENE,58,0.0,0.0,12,0.00,,,0.00,VWS V14.01,2013-11-29 16:23:00,
2013-11-29 08:28:00,58.1,5.8,30.08,NE,49,0.0,3.6,12,0.00,,,0.00,VWS V14.01,2013-11-29 16:28:00,
2013-11-29 08:33:00,58.8,6.3,30.08,ENE,77,2.7,4.0,12,0.00,,,0.00,VWS V14.01,2013-11-29 16:33:00,
2013-11-29 08:38:00,59.4,6.8,30.08,NNE,28,2.7,3.6,12,0.00,,,0.00,VWS V14.01,2013-11-29 16:38:00,
2013-11-29 08:43:00,59.9,7.2,30.08,ENE,73,2.7,2.7,12,0.00,,,0.00,VWS V14.01,2013-11-29 16:43:00,
2013-11-29 08:49:00,60.1,7.3,30.08,NNE,17,0.0,3.1,12,0.00,,,0.00,VWS V14.01,2013-11-29 16:49:00,
2013-11-29 08:54:00,60.3,7.5,30.08,East,79,2.7,3.1,12,0.00,,,0.00,VWS V14.01,2013-11-29 16:54:00,
2013-11-29 08:59:00,60.6,7.8,30.08,SE,146,0.0,3.1,12,0.00,,,0.00,VWS V14.01,2013-11-29 16:59:00,
2013-11-29 09:04:00,60.6,7.8,30.08,East,87,3.6,3.6,12,0.00,,,0.00,VWS V14.01,2013-11-29 17:04:00,
2013-11-29 09:09:00,60.8,6.0,30.08,NE,42,0.0,0.0,11,0.00,,,0.00,VWS V14.01,2013-11-29 17:09:00,
2013-11-29 09:14:00,61.0,6.1,30.08,East,93,2.2,3.6,11,0.00,,,0.00,VWS V14.01,2013-11-29 17:14:00,
2013-11-29 09:19:00,60.8,6.0,30.08,NE,37,2.7,4.0,11,0.00,,,0.00,VWS V14.01,2013-11-29 17:19:00,
2013-11-29 09:24:00,60.6,7.8,30.08,North,357,3.6,3.6,12,0.00,,,0.00,VWS V14.01,2013-11-29 17:24:00,
2013-11-29 09:29:00,60.6,7.8,30.08,ENE,58,6.3,6.3,12,0.00,,,0.00,VWS V14.01,2013-11-29 17:29:00,
2013-11-29 09:34:00,60.3,7.5,30.08,NNE,18,5.4,5.4,12,0.00,,,0.00,VWS V14.01,2013-11-29 17:34:00,
2013-11-29 09:39:00,59.9,7.2,30.08,SE,134,3.6,6.3,12,0.00,,,0.00,VWS V14.01,2013-11-29 17:39:00,
2013-11-29 09:44:00,59.9,7.2,30.08,ENE,68,5.4,5.4,12,0.00,,,0.00,VWS V14.01,2013-11-29 17:44:00,
2013-11-29 09:49:00,60.1,7.3,30.08,ESE,113,2.7,5.4,12,0.00,,,0.00,VWS V14.01,2013-11-29 17:49:00,
2013-11-29 09:54:00,60.4,7.6,30.08,NNE,17,2.7,4.0,12,0.00,,,0.00,VWS V14.01,2013-11-29 17:54:00,
2013-11-29 09:59:00,60.4,7.6,30.08,East,88,3.1,5.8,12,0.00,,,0.00,VWS V14.01,2013-11-29 17:59:00,
2013-11-29 10:04:00,60.8,6.0,30.08,WSW,237,2.2,4.9,11,0.00,,,0.00,VWS V14.01,2013-11-29 18:04:00,
2013-11-29 10:09:00,61.2,6.3,30.08,ENE,70,3.6,5.4,11,0.00,,,0.00,VWS V14.01,2013-11-29 18:09:00,
2013-11-29 10:14:00,61.5,6.5,30.08,ESE,105,5.4,5.4,11,0.00,,,0.00,VWS V14.01,2013-11-29 18:14:00,
2013-11-29 10:19:00,61.7,6.7,30.08,North,357,2.2,3.6,11,0.00,,,0.00,VWS V14.01,2013-11-29 18:19:00,
2013-11-29 10:24:00,62.1,7.0,30.11,North,0,2.2,6.3,11,0.00,,,0.00,VWS V14.01,2013-11-29 18:24:00,
2013-11-29 10:29:00,61.9,6.8,30.11,East,84,5.8,5.8,11,0.00,,,0.00,VWS V14.01,2013-11-29 18:29:00,
2013-11-29 10:34:00,62.2,7.1,30.11,ESE,121,4.0,5.4,11,0.00,,,0.00,VWS V14.01,2013-11-29 18:34:00,
2013-11-29 10:39:00,62.4,7.2,30.08,SSE,158,2.7,3.1,11,0.00,,,0.00,VWS V14.01,2013-11-29 18:39:00,
2013-11-29 10:44:00,63.0,7.7,30.08,NE,43,3.6,3.6,11,0.00,,,0.00,VWS V14.01,2013-11-29 18:44:00,
2013-11-29 10:49:00,63.3,7.9,30.08,East,96,6.3,6.3,11,0.00,,,0.00,VWS V14.01,2013-11-29 18:49:00,
2013-11-29 10:54:00,63.3,7.9,30.08,ENE,64,2.2,5.8,11,0.00,,,0.00,VWS V14.01,2013-11-29 18:54:00,
2013-11-29 10:59:00,63.5,8.1,30.08,ENE,78,2.7,4.0,11,0.00,,,0.00,VWS V14.01,2013-11-29 18:59:00,
2013-11-29 11:04:00,63.9,8.4,30.08,ESE,117,3.1,4.0,11,0.00,,,0.00,VWS V14.01,2013-11-29 19:04:00,
2013-11-29 11:09:00,64.4,6.7,30.08,SE,140,2.2,4.0,10,0.00,,,0.00,VWS V14.01,2013-11-29 19:09:00,
2013-11-29 11:14:00,64.6,6.8,30.08,ESE,107,5.8,5.8,10,0.00,,,0.00,VWS V14.01,2013-11-29 19:14:00,
2013-11-29 11:19:00,64.8,6.9,30.08,SE,139,0.0,0.0,10,0.00,,,0.00,VWS V14.01,2013-11-29 19:19:00,
2013-11-29 11:24:00,65.1,7.2,30.08,SE,142,3.1,3.6,10,0.00,,,0.00,VWS V14.01,2013-11-29 19:24:00,
2013-11-29 11:29:00,65.7,7.6,30.08,ENE,60,0.0,0.0,10,0.00,,,0.00,VWS V14.01,2013-11-29 19:29:00,
2013-11-29 11:34:00,66.2,8.1,30.08,North,2,4.9,4.9,10,0.00,,,0.00,VWS V14.01,2013-11-29 19:34:00,
2013-11-29 11:39:00,66.0,7.9,30.08,NE,49,5.4,5.8,10,0.00,,,0.00,VWS V14.01,2013-11-29 19:39:00,
2013-11-29 11:44:00,65.8,7.8,30.08,ENE,69,0.0,3.1,10,0.00,,,0.00,VWS V14.01,2013-11-29 19:44:00,
2013-11-29 11:49:00,66.2,8.1,30.08,East,91,3.6,3.6,10,0.00,,,0.00,VWS V14.01,2013-11-29 19:49:00,
2013-11-29 11:54:00,66.4,8.2,30.05,SSW,200,0.0,2.7,10,0.00,,,0.00,VWS V14.01,2013-11-29 19:54:00,
2013-11-29 11:59:00,66.9,8.6,30.05,SE,145,2.7,2.7,10,0.00,,,0.00,VWS V14.01,2013-11-29 19:59:00,
2013-11-29 12:04:00,66.9,8.6,30.05,SE,137,4.9,4.9,10,0.00,,,0.00,VWS V14.01,2013-11-29 20:04:00,
2013-11-29 12:09:00,66.9,8.6,30.05,South,178,2.7,2.7,10,0.00,,,0.00,VWS V14.01,2013-11-29 20:09:00,
2013-11-29 12:14:00,66.7,8.5,30.05,SSW,202,0.0,3.1,10,0.00,,,0.00,VWS V14.01,2013-11-29 20:14:00,
2013-11-29 12:19:00,66.4,8.2,30.05,SW,217,4.0,4.0,10,0.00,,,0.00,VWS V14.01,2013-11-29 20:19:00,
2013-11-29 12:24:00,66.4,8.2,30.05,SSW,210,4.0,4.0,10,0.00,,,0.00,VWS V14.01,2013-11-29 20:24:00,
2013-11-29 12:29:00,65.8,7.8,30.05,SSW,205,0.0,2.2,10,0.00,,,0.00,VWS V14.01,2013-11-29 20:29:00,
2013-11-29 12:34:00,65.7,7.6,30.05,NW,318,2.2,2.2,10,0.00,,,0.00,VWS V14.01,2013-11-29 20:34:00,
2013-11-29 12:39:00,65.7,7.6,30.05,West,265,2.7,2.7,10,0.00,,,0.00,VWS V14.01,2013-11-29 20:39:00,
2013-11-29 12:44:00,65.7,7.6,30.05,SSW,196,0.0,0.0,10,0.00,,,0.00,VWS V14.01,2013-11-29 20:44:00,
2013-11-29 12:49:00,66.4,8.2,30.05,SW,217,0.0,0.0,10,0.00,,,0.00,VWS V14.01,2013-11-29 20:49:00,
2013-11-29 12:54:00,66.7,8.5,30.05,SSW,213,3.1,3.6,10,0.00,,,0.00,VWS V14.01,2013-11-29 20:54:00,
2013-11-29 12:59:00,66.6,8.3,30.05,WSW,247,3.1,3.1,10,0.00,,,0.00,VWS V14.01,2013-11-29 20:59:00,
2013-11-29 13:04:00,66.6,8.3,30.05,SSW,209,0.0,2.7,10,0.00,,,0.00,VWS V14.01,2013-11-29 21:04:00,
2013-11-29 13:09:00,66.7,8.5,30.05,WSW,246,0.0,3.1,10,0.00,,,0.00,VWS V14.01,2013-11-29 21:09:00,
2013-11-29 13:14:00,66.4,8.2,30.05,WNW,284,4.0,4.0,10,0.00,,,0.00,VWS V14.01,2013-11-29 21:14:00,
2013-11-29 13:19:00,66.0,7.9,30.05,WSW,238,2.7,3.6,10,0.00,,,0.00,VWS V14.01,2013-11-29 21:19:00,
2013-11-29 13:24:00,66.0,7.9,30.05,WNW,289,2.7,2.7,10,0.00,,,0.00,VWS V14.01,2013-11-29 21:24:00,
2013-11-29 13:29:00,65.8,7.8,30.05,West,260,4.0,4.0,10,0.00,,,0.00,VWS V14.01,2013-11-29 21:29:00,
2013-11-29 13:34:00,66.0,7.9,30.05,SSW,199,3.6,3.6,10,0.00,,,0.00,VWS V14.01,2013-11-29 21:34:00,
2013-11-29 13:39:00,66.4,8.2,30.05,West,270,2.7,2.7,10,0.00,,,0.00,VWS V14.01,2013-11-29 21:39:00,
2013-11-29 13:44:00,66.7,8.5,30.05,SW,222,3.1,3.1,10,0.00,,,0.00,VWS V14.01,2013-11-29 21:44:00,
2013-11-29 13:49:00,67.1,8.7,30.05,WSW,243,4.0,4.0,10,0.00,,,0.00,VWS V14.01,2013-11-29 21:49:00,
2013-11-29 13:54:00,67.1,8.7,30.02,SSW,213,5.4,5.4,10,0.00,,,0.00,VWS V14.01,2013-11-29 21:54:00,
2013-11-29 13:59:00,67.1,8.7,30.02,SSW,200,2.7,4.0,10,0.00,,,0.00,VWS V14.01,2013-11-29 21:59:00,
2013-11-29 14:04:00,67.3,8.9,30.02,WSW,243,2.7,2.7,10,0.00,,,0.00,VWS V14.01,2013-11-29 22:04:00,
2013-11-29 14:09:00,67.5,9.0,30.02,SW,222,2.7,3.1,10,0.00,,,0.00,VWS V14.01,2013-11-29 22:09:00,
2013-11-29 14:14:00,67.5,9.0,30.02,WSW,240,3.1,3.6,10,0.00,,,0.00,VWS V14.01,2013-11-29 22:14:00,
2013-11-29 14:19:00,67.3,8.9,30.02,WNW,290,2.2,2.2,10,0.00,,,0.00,VWS V14.01,2013-11-29 22:19:00,
2013-11-29 14:24:00,67.3,8.9,30.02,SW,221,2.7,2.7,10,0.00,,,0.00,VWS V14.01,2013-11-29 22:24:00,
2013-11-29 14:29:00,67.3,8.9,30.02,SSW,208,2.2,2.2,10,0.00,,,0.00,VWS V14.01,2013-11-29 22:29:00,
2013-11-29 14:34:00,67.3,8.9,30.02,WSW,249,2.2,3.6,10,0.00,,,0.00,VWS V14.01,2013-11-29 22:34:00,
2013-11-29 14:39:00,67.3,8.9,30.02,WNW,283,0.0,0.0,10,0.00,,,0.00,VWS V14.01,2013-11-29 22:39:00,
2013-11-29 14:44:00,67.5,9.0,30.02,SW,224,2.7,2.7,10,0.00,,,0.00,VWS V14.01,2013-11-29 22:44:00,
2013-11-29 14:49:00,67.6,9.1,30.02,SW,222,3.6,3.6,10,0.00,,,0.00,VWS V14.01,2013-11-29 22:49:00,
2013-11-29 14:54:00,67.6,9.1,30.02,SW,234,0.0,2.2,10,0.00,,,0.00,VWS V14.01,2013-11-29 22:54:00,
2013-11-29 14:59:00,67.6,9.1,30.02,South,184,0.0,0.0,10,0.00,,,0.00,VWS V14.01,2013-11-29 22:59:00,
2013-11-29 15:04:00,68.0,9.4,30.02,WSW,250,3.1,3.1,10,0.00,,,0.00,VWS V14.01,2013-11-29 23:04:00,
2013-11-29 15:09:00,68.0,9.4,30.02,SSW,209,2.7,2.7,10,0.00,,,0.00,VWS V14.01,2013-11-29 23:09:00,
2013-11-29 15:14:00,68.0,9.4,30.02,WNW,285,3.1,3.1,10,0.00,,,0.00,VWS V14.01,2013-11-29 23:14:00,
2013-11-29 15:19:00,67.5,9.0,30.02,West,272,0.0,2.2,10,0.00,,,0.00,VWS V14.01,2013-11-29 23:19:00,
2013-11-29 15:24:00,66.6,8.3,30.02,WNW,294,3.1,3.1,10,0.00,,,0.00,VWS V14.01,2013-11-29 23:24:00,
2013-11-29 15:29:00,66.0,7.9,30.02,West,278,2.2,2.7,10,0.00,,,0.00,VWS V14.01,2013-11-29 23:29:00,
2013-11-29 15:34:00,65.8,7.8,30.02,WSW,240,2.7,2.7,10,0.00,,,0.00,VWS V14.01,2013-11-29 23:34:00,
2013-11-29 15:39:00,65.8,7.8,30.05,WSW,257,2.7,2.7,10,0.00,,,0.00,VWS V14.01,2013-11-29 23:39:00,
2013-11-29 15:44:00,65.7,7.6,30.05,WNW,297,2.7,3.1,10,0.00,,,0.00,VWS V14.01,2013-11-29 23:44:00,
2013-11-29 15:49:00,64.9,7.1,30.05,WNW,299,3.6,3.6,10,0.00,,,0.00,VWS V14.01,2013-11-29 23:49:00,
2013-11-29 15:54:00,64.4,6.7,30.05,West,273,2.2,2.2,10,0.00,,,0.00,VWS V14.01,2013-11-29 23:54:00,
2013-11-29 15:59:00,64.4,6.7,30.05,WSW,243,2.7,2.7,10,0.00,,,0.00,VWS V14.01,2013-11-29 23:59:00,
2013-11-29 16:04:00,64.2,8.6,30.05,WNW,297,3.1,3.1,11,0.00,,,0.00,VWS V14.01,2013-11-30 00:04:00,
2013-11-29 16:09:00,64.2,8.6,30.05,West,276,2.7,4.0,11,0.00,,,0.00,VWS V14.01,2013-11-30 00:09:00,
2013-11-29 16:14:00,64.0,8.5,30.05,West,262,0.0,0.0,11,0.00,,,0.00,VWS V14.01,2013-11-30 00:14:00,
2013-11-29 16:19:00,64.2,8.6,30.05,West,262,0.0,0.0,11,0.00,,,0.00,VWS V14.01,2013-11-30 00:19:00,
2013-11-29 16:24:00,64.4,6.7,30.05,West,262,0.0,0.0,10,0.00,,,0.00,VWS V14.01,2013-11-30 00:24:00,
2013-11-29 16:29:00,64.4,6.7,30.05,NNE,15,4.0,4.0,10,0.00,,,0.00,VWS V14.01,2013-11-30 00:29:00,
2013-11-29 16:34:00,63.7,8.2,30.05,NNE,19,3.6,4.0,11,0.00,,,0.00,VWS V14.01,2013-11-30 00:34:00,
2013-11-29 16:39:00,63.1,7.8,30.05,NNE,12,0.0,0.0,11,0.00,,,0.00,VWS V14.01,2013-11-30 00:39:00,
2013-11-29 16:44:00,62.8,7.5,30.05,NNE,12,0.0,0.0,11,0.00,,,0.00,VWS V14.01,2013-11-30 00:44:00,
2013-11-29 16:49:00,62.2,7.1,30.05,NNE,12,0.0,0.0,11,0.00,,,0.00,VWS V14.01,2013-11-30 00:49:00,
2013-11-29 16:54:00,61.9,6.8,30.05,SSW,209,2.2,3.6,11,0.00,,,0.00,VWS V14.01,2013-11-30 00:54:00,
2013-11-29 16:59:00,60.8,6.0,30.05,ESE,102,2.2,2.7,11,0.00,,,0.00,VWS V14.01,2013-11-30 00:59:00,
2013-11-29 17:04:00,59.5,6.9,30.05,SSW,206,2.7,2.7,12,0.00,,,0.00,VWS V14.01,2013-11-30 01:04:00,
2013-11-29 17:09:00,58.5,6.1,30.05,SSW,207,0.0,0.0,12,0.00,,,0.00,VWS V14.01,2013-11-30 01:09:00,
2013-11-29 17:14:00,57.6,5.3,30.05,SSW,207,0.0,0.0,12,0.00,,,0.00,VWS V14.01,2013-11-30 01:14:00,
2013-11-29 17:19:00,57.0,9.8,30.05,SSW,207,0.0,0.0,15,0.00,,,0.00,VWS V14.01,2013-11-30 01:19:00,
2013-11-29 17:24:00,56.8,9.7,30.05,ESE,114,0.0,0.0,15,0.00,,,0.00,VWS V14.01,2013-11-30 01:24:00,
2013-11-29 17:29:00,57.0,9.8,30.05,ENE,63,2.2,2.7,15,0.00,,,0.00,VWS V14.01,2013-11-30 01:29:00,
2013-11-29 17:34:00,57.4,8.6,30.05,NE,55,2.7,2.7,14,0.00,,,0.00,VWS V14.01,2013-11-30 01:34:00,
2013-11-29 17:39:00,57.7,8.9,30.05,NE,47,0.0,0.0,14,0.00,,,0.00,VWS V14.01,2013-11-30 01:39:00,
2013-11-29 17:44:00,57.7,8.9,30.05,NE,36,2.7,2.7,14,0.00,,,0.00,VWS V14.01,2013-11-30 01:44:00,
2013-11-29 17:49:00,57.9,5.6,30.05,NNE,28,2.7,3.1,12,0.00,,,0.00,VWS V14.01,2013-11-30 01:49:00,
2013-11-29 17:54:00,58.1,5.8,30.05,NNE,20,2.7,2.7,12,0.00,,,0.00,VWS V14.01,2013-11-30 01:54:00,
2013-11-29 17:59:00,58.1,5.8,30.05,NE,38,0.0,2.2,12,0.00,,,0.00,VWS V14.01,2013-11-30 01:59:00,
2013-11-29 18:04:00,58.1,5.8,30.05,NE,47,0.0,0.0,12,0.00,,,0.00,VWS V14.01,2013-11-30 02:04:00,
2013-11-29 18:09:00,57.9,5.6,30.08,NNE,31,2.7,2.7,12,0.00,,,0.00,VWS V14.01,2013-11-30 02:09:00,
2013-11-29 18:14:00,57.7,5.5,30.08,NNE,31,0.0,2.7,12,0.00,,,0.00,VWS V14.01,2013-11-30 02:14:00,
2013-11-29 18:19:00,57.7,5.5,30.08,North,11,0.0,0.0,12,0.00,,,0.00,VWS V14.01,2013-11-30 02:19:00,
2013-11-29 18:24:00,57.7,5.5,30.08,NE,53,2.2,2.7,12,0.00,,,0.00,VWS V14.01,2013-11-30 02:24:00,
2013-11-29 18:29:00,58.1,5.8,30.08,NE,42,2.2,2.2,12,0.00,,,0.00,VWS V14.01,2013-11-30 02:29:00,
2013-11-29 18:34:00,57.9,5.6,30.08,NE,46,2.7,2.7,12,0.00,,,0.00,VWS V14.01,2013-11-30 02:34:00,
2013-11-29 18:39:00,58.1,5.8,30.08,NE,45,2.7,2.7,12,0.00,,,0.00,VWS V14.01,2013-11-30 02:39:00,
2013-11-29 18:44:00,58.5,6.1,30.08,NE,44,0.0,2.7,12,0.00,,,0.00,VWS V14.01,2013-11-30 02:44:00,
2013-11-29 18:49:00,58.5,6.1,30.08,NE,45,0.0,0.0,12,0.00,,,0.00,VWS V14.01,2013-11-30 02:49:00,
2013-11-29 18:54:00,58.3,5.9,30.08,NE,44,0.0,0.0,12,0.00,,,0.00,VWS V14.01,2013-11-30 02:54:00,
2013-11-29 18:59:00,58.3,5.9,30.08,NE,45,0.0,0.0,12,0.00,,,0.00,VWS V14.01,2013-11-30 02:59:00,
2013-11-29 19:04:00,58.1,5.8,30.08,NE,45,3.1,3.1,12,0.00,,,0.00,VWS V14.01,2013-11-30 03:04:00,
2013-11-29 19:10:00,58.3,5.9,30.08,NE,45,2.7,2.7,12,0.00,,,0.00,VWS V14.01,2013-11-30 03:10:00,
2013-11-29 19:14:00,58.5,6.1,30.08,NE,45,0.0,0.0,12,0.00,,,0.00,VWS V14.01,2013-11-30 03:14:00,
2013-11-29 19:19:00,58.3,5.9,30.08,NNW,348,0.0,0.0,12,0.00,,,0.00,VWS V14.01,2013-11-30 03:19:00,
2013-11-29 19:25:00,58.1,5.8,30.08,NNW,348,0.0,0.0,12,0.00,,,0.00,VWS V14.01,2013-11-30 03:25:00,
2013-11-29 19:29:00,58.3,5.9,30.08,NE,49,0.0,0.0,12,0.00,,,0.00,VWS V14.01,2013-11-30 03:29:00,
2013-11-29 19:34:00,57.6,5.3,30.08,East,89,3.1,3.1,12,0.00,,,0.00,VWS V14.01,2013-11-30 03:34:00,
2013-11-29 19:39:00,57.4,5.2,30.05,East,89,2.7,2.7,12,0.00,,,0.00,VWS V14.01,2013-11-30 03:39:00,
2013-11-29 19:44:00,57.4,5.2,30.05,East,89,2.2,2.2,12,0.00,,,0.00,VWS V14.01,2013-11-30 03:44:00,
2013-11-29 19:50:00,57.2,5.1,30.05,East,89,2.2,2.2,12,0.00,,,0.00,VWS V14.01,2013-11-30 03:50:00,
2013-11-29 19:55:00,56.8,4.8,30.08,East,85,3.6,4.0,12,0.00,,,0.00,VWS V14.01,2013-11-30 03:55:00,
2013-11-29 20:00:00,56.5,4.5,30.08,ENE,71,0.0,2.7,12,0.00,,,0.00,VWS V14.01,2013-11-30 04:00:00,
2013-11-29 20:05:00,56.7,4.6,30.08,ENE,71,0.0,2.2,12,0.00,,,0.00,VWS V14.01,2013-11-30 04:05:00,
2013-11-29 20:10:00,57.0,4.9,30.08,ENE,71,0.0,0.0,12,0.00,,,0.00,VWS V14.01,2013-11-30 04:10:00,
2013-11-29 20:15:00,57.2,5.1,30.08,ENE,71,0.0,0.0,12,0.00,,,0.00,VWS V14.01,2013-11-30 04:15:00,
2013-11-29 20:19:00,57.2,5.1,30.08,ENE,60,2.2,2.7,12,0.00,,,0.00,VWS V14.01,2013-11-30 04:19:00,
2013-11-29 20:24:00,57.4,5.2,30.08,ENE,60,2.2,2.2,12,0.00,,,0.00,VWS V14.01,2013-11-30 04:24:00,
2013-11-29 20:29:00,57.2,5.1,30.08,ENE,60,2.2,2.2,12,0.00,,,0.00,VWS V14.01,2013-11-30 04:29:00,
2013-11-29 20:34:00,57.0,4.9,30.08,ENE,60,2.2,2.2,12,0.00,,,0.00,VWS V14.01,2013-11-30 04:34:00,
2013-11-29 20:40:00,56.8,4.8,30.08,ENE,60,0.0,0.0,12,0.00,,,0.00,VWS V14.01,2013-11-30 04:40:00,
2013-11-29 20:45:00,56.8,4.8,30.08,ENE,60,0.0,0.0,12,0.00,,,0.00,VWS V14.01,2013-11-30 04:45:00,
2013-11-29 20:50:00,56.5,4.5,30.08,ENE,60,0.0,0.0,12,0.00,,,0.00,VWS V14.01,2013-11-30 04:50:00,
2013-11-29 20:55:00,55.8,3.9,30.08,ENE,60,0.0,0.0,12,0.00,,,0.00,VWS V14.01,2013-11-30 04:55:00,
2013-11-29 21:00:00,54.9,5.0,30.08,ENE,60,0.0,0.0,13,0.00,,,0.00,VWS V14.01,2013-11-30 05:00:00,
2013-11-29 21:01:00,54.9,5.0,30.08,ENE,60,0.0,0.0,13,0.00,,,0.00,VWS V14.01,2013-11-30 05:01:00,
2013-11-29 21:02:00,54.7,4.8,30.08,ENE,60,0.0,0.0,13,0.00,,,0.00,VWS V14.01,2013-11-30 05:02:00,
2013-11-29 21:03:00,54.7,4.8,30.08,ENE,60,0.0,0.0,13,0.00,,,0.00,VWS V14.01,2013-11-30 05:03:00,
2013-11-29 21:08:00,54.5,4.7,30.11,SSW,212,0.0,0.0,13,0.00,,,0.00,VWS V14.01,2013-11-30 05:08:00,
2013-11-29 21:13:00,54.0,4.2,30.11,SSW,211,0.0,0.0,13,0.00,,,0.00,VWS V14.01,2013-11-30 05:13:00,
2013-11-29 21:18:00,53.6,4.0,30.11,SSW,211,0.0,0.0,13,0.00,,,0.00,VWS V14.01,2013-11-30 05:18:00,
2013-11-29 21:23:00,53.2,3.7,30.11,SSW,211,0.0,0.0,13,0.00,,,0.00,VWS V14.01,2013-11-30 05:23:00,
2013-11-29 21:28:00,53.2,3.7,30.11,NNE,24,0.0,0.0,13,0.00,,,0.00,VWS V14.01,2013-11-30 05:28:00,
2013-11-29 21:33:00,53.2,3.7,30.11,NE,34,2.2,3.1,13,0.00,,,0.00,VWS V14.01,2013-11-30 05:33:00,
2013-11-29 21:38:00,53.4,8.4,30.11,NNE,23,2.7,2.7,16,0.00,,,0.00,VWS V14.01,2013-11-30 05:38:00,
2013-11-29 21:43:00,53.8,7.2,30.11,NE,44,2.7,2.7,15,0.00,,,0.00,VWS V14.01,2013-11-30 05:43:00,
2013-11-29 21:48:00,54.0,7.4,30.11,North,7,0.0,0.0,15,0.00,,,0.00,VWS V14.01,2013-11-30 05:48:00,
2013-11-29 21:53:00,54.1,7.5,30.11,NE,41,3.1,4.9,15,0.00,,,0.00,VWS V14.01,2013-11-30 05:53:00,
2013-11-29 21:58:00,54.5,7.8,30.11,NE,55,0.0,0.0,15,0.00,,,0.00,VWS V14.01,2013-11-30 05:58:00,
2013-11-29 22:03:00,54.5,4.7,30.11,East,85,2.7,2.7,13,0.00,,,0.00,VWS V14.01,2013-11-30 06:03:00,
2013-11-29 22:08:00,54.1,4.4,30.11,East,86,0.0,0.0,13,0.00,,,0.00,VWS V14.01,2013-11-30 06:08:00,
2013-11-29 22:13:00,54.0,4.2,30.11,ENE,74,0.0,0.0,13,0.00,,,0.00,VWS V14.01,2013-11-30 06:13:00,
2013-11-29 22:18:00,54.0,4.2,30.11,ENE,74,0.0,0.0,13,0.00,,,0.00,VWS V14.01,2013-11-30 06:18:00,
2013-11-29 22:23:00,53.8,4.1,30.11,NNE,16,0.0,0.0,13,0.00,,,0.00,VWS V14.01,2013-11-30 06:23:00,
2013-11-29 22:28:00,53.8,4.1,30.11,NNE,16,0.0,0.0,13,0.00,,,0.00,VWS V14.01,2013-11-30 06:28:00,
2013-11-29 22:33:00,53.8,4.1,30.11,NE,48,0.0,0.0,13,0.00,,,0.00,VWS V14.01,2013-11-30 06:33:00,
2013-11-29 22:38:00,54.0,4.2,30.11,ENE,57,3.1,3.1,13,0.00,,,0.00,VWS V14.01,2013-11-30 06:38:00,
2013-11-29 22:43:00,54.1,4.4,30.11,ENE,57,0.0,0.0,13,0.00,,,0.00,VWS V14.01,2013-11-30 06:43:00,
2013-11-29 22:48:00,54.0,4.2,30.11,ENE,57,0.0,0.0,13,0.00,,,0.00,VWS V14.01,2013-11-30 06:48:00,
2013-11-29 22:53:00,53.8,4.1,30.11,ENE,57,0.0,0.0,13,0.00,,,0.00,VWS V14.01,2013-11-30 06:53:00,
2013-11-29 22:58:00,53.2,3.7,30.11,ENE,57,0.0,0.0,13,0.00,,,0.00,VWS V14.01,2013-11-30 06:58:00,
2013-11-29 23:03:00,53.1,3.5,30.11,ENE,77,2.7,2.7,13,0.00,,,0.00,VWS V14.01,2013-11-30 07:03:00,
2013-11-29 23:08:00,53.4,3.8,30.11,ENE,77,0.0,0.0,13,0.00,,,0.00,VWS V14.01,2013-11-30 07:08:00,
2013-11-29 23:13:00,54.0,4.2,30.11,NE,46,0.0,0.0,13,0.00,,,0.00,VWS V14.01,2013-11-30 07:13:00,
2013-11-29 23:18:00,54.3,4.5,30.11,East,92,0.0,0.0,13,0.00,,,0.00,VWS V14.01,2013-11-30 07:18:00,
2013-11-29 23:23:00,54.3,4.5,30.11,East,92,0.0,0.0,13,0.00,,,0.00,VWS V14.01,2013-11-30 07:23:00,
2013-11-29 23:28:00,54.1,4.4,30.11,East,92,0.0,0.0,13,0.00,,,0.00,VWS V14.01,2013-11-30 07:28:00,
2013-11-29 23:33:00,53.8,4.1,30.11,ENE,77,2.7,3.1,13,0.00,,,0.00,VWS V14.01,2013-11-30 07:33:00,
2013-11-29 23:38:00,53.8,4.1,30.11,ENE,77,3.1,3.1,13,0.00,,,0.00,VWS V14.01,2013-11-30 07:38:00,
2013-11-29 23:43:00,54.1,4.4,30.11,ENE,77,0.0,0.0,13,0.00,,,0.00,VWS V14.01,2013-11-30 07:43:00,
2013-11-29 23:48:00,54.3,4.5,30.11,ENE,77,0.0,0.0,13,0.00,,,0.00,VWS V14.01,2013-11-30 07:48:00,
2013-11-29 23:53:00,53.8,4.1,30.11,ENE,77,0.0,0.0,13,0.00,,,0.00,VWS V14.01,2013-11-30 07:53:00,
2013-11-29 23:58:00,53.2,3.7,30.11,ENE,77,0.0,0.0,13,0.00,,,0.00,VWS V14.01,2013-11-30 07:58:00,